createdAt,value
2023-03-16T00:01:43.660Z,3.25
2023-03-16T00:04:10.815Z,3.26
2023-03-16T00:06:39.813Z,3.25
2023-03-16T00:09:06.343Z,3.18
2023-03-16T00:11:32.904Z,3.35
2023-03-16T00:13:59.340Z,3.13
2023-03-16T00:16:25.999Z,3.29
2023-03-16T00:18:52.532Z,3.12
2023-03-16T00:21:19.064Z,3.04
2023-03-16T00:23:45.550Z,3.03
2023-03-16T00:26:13.253Z,2.79
2023-03-16T00:28:40.018Z,3.13
2023-03-16T00:31:08.808Z,3.09
2023-03-16T00:33:35.634Z,3.14
2023-03-16T00:36:08.300Z,3.12
2023-03-16T00:38:37.609Z,3.10
2023-03-16T00:41:07.304Z,3.01
2023-03-16T00:43:41.889Z,2.96
2023-03-16T00:46:10.513Z,2.93
2023-03-16T00:48:39.449Z,2.93
2023-03-16T00:51:08.195Z,2.83
2023-03-16T00:53:36.350Z,2.90
2023-03-16T00:56:04.538Z,2.42
2023-03-16T00:58:36.037Z,2.75
2023-03-16T01:01:06.150Z,2.63
2023-03-16T01:03:33.229Z,2.75
2023-03-16T01:06:04.683Z,2.43
2023-03-16T01:08:33.115Z,2.71
2023-03-16T01:11:05.006Z,2.64
2023-03-16T01:13:32.555Z,2.68
2023-03-16T01:16:00.210Z,2.68
2023-03-16T01:18:28.006Z,2.64
2023-03-16T01:20:54.516Z,2.63
2023-03-16T01:23:21.948Z,2.61
2023-03-16T01:25:53.130Z,2.56
2023-03-16T01:28:24.770Z,2.37
2023-03-16T01:30:55.659Z,2.06
2023-03-16T01:33:22.430Z,2.33
2023-03-16T01:35:56.783Z,2.26
2023-03-16T01:38:23.751Z,2.19
2023-03-16T01:40:51.912Z,2.01
2023-03-16T01:43:20.292Z,1.90
2023-03-16T01:45:58.809Z,2.13
2023-03-16T01:48:27.389Z,1.97
2023-03-16T01:50:55.467Z,1.76
2023-03-16T01:53:24.882Z,2.19
2023-03-16T01:55:51.902Z,2.08
2023-03-16T01:58:18.593Z,2.34
2023-03-16T02:00:45.791Z,2.39
2023-03-16T02:03:16.854Z,2.36
2023-03-16T02:05:50.620Z,2.11
2023-03-16T02:08:18.085Z,2.08
2023-03-16T02:10:46.029Z,2.29
2023-03-16T02:13:12.775Z,1.77
2023-03-16T02:15:39.473Z,1.69
2023-03-16T02:18:07.791Z,2.11
2023-03-16T02:21:06.797Z,2.17
2023-03-16T02:23:33.422Z,2.02
2023-03-16T02:26:09.095Z,2.17
2023-03-16T02:28:53.889Z,1.80
2023-03-16T02:31:22.393Z,2.01
2023-03-16T02:33:51.681Z,2.10
2023-03-16T02:36:19.710Z,1.68
2023-03-16T02:38:46.614Z,2.03
2023-03-16T02:41:21.315Z,2.08
2023-03-16T02:43:52.843Z,1.80
2023-03-16T02:46:23.322Z,2.09
2023-03-16T02:48:58.238Z,1.97
2023-03-16T02:51:24.991Z,2.00
2023-03-16T02:53:51.504Z,2.18
2023-03-16T02:56:17.989Z,2.20
2023-03-16T02:58:44.771Z,1.90
2023-03-16T03:01:11.554Z,2.12
2023-03-16T03:03:38.126Z,2.17
2023-03-16T03:06:04.846Z,2.03
2023-03-16T03:08:33.066Z,2.31
2023-03-16T03:10:59.897Z,2.29
2023-03-16T03:13:26.388Z,2.21
2023-03-16T03:15:53.171Z,2.19
2023-03-16T03:18:19.779Z,1.58
2023-03-16T03:20:46.299Z,2.24
2023-03-16T03:23:12.818Z,2.17
2023-03-16T03:25:39.255Z,2.12
2023-03-16T03:28:05.918Z,2.01
2023-03-16T03:30:33.098Z,2.13
2023-03-16T03:32:59.707Z,2.11
2023-03-16T03:35:26.494Z,1.43
2023-03-16T03:37:53.340Z,2.23
2023-03-16T03:40:20.992Z,2.05
2023-03-16T03:42:47.858Z,1.87
2023-03-16T03:45:15.263Z,2.25
2023-03-16T03:47:43.240Z,2.22
2023-03-16T03:50:11.126Z,2.14
2023-03-16T03:52:37.698Z,2.14
2023-03-16T03:55:04.458Z,2.19
2023-03-16T03:57:30.926Z,2.24
2023-03-16T03:59:57.497Z,2.24
2023-03-16T04:02:25.348Z,2.22
2023-03-16T04:04:52.047Z,2.27
2023-03-16T04:07:18.542Z,2.27
2023-03-16T04:09:45.068Z,1.96
2023-03-16T04:12:11.941Z,2.12
2023-03-16T04:14:38.568Z,2.23
2023-03-16T04:17:05.143Z,2.21
2023-03-16T04:19:31.803Z,2.04
2023-03-16T04:21:58.395Z,1.70
2023-03-16T04:24:24.916Z,1.88
2023-03-16T04:26:51.385Z,2.03
2023-03-16T04:29:20.535Z,2.10
2023-03-16T04:31:47.281Z,2.31
2023-03-16T04:34:14.272Z,2.32
2023-03-16T04:36:42.198Z,2.06
2023-03-16T04:39:10.485Z,2.13
2023-03-16T04:41:37.477Z,2.09
2023-03-16T04:44:04.901Z,2.06
2023-03-16T04:46:32.185Z,1.97
2023-03-16T04:48:59.077Z,1.92
2023-03-16T04:51:26.549Z,1.90
2023-03-16T04:53:53.535Z,2.03
2023-03-16T04:56:21.035Z,2.09
2023-03-16T04:58:49.125Z,2.24
2023-03-16T05:01:17.290Z,2.27
2023-03-16T05:03:44.537Z,2.10
2023-03-16T05:06:12.729Z,2.31
2023-03-16T05:08:40.614Z,2.22
2023-03-16T05:11:07.346Z,2.18
2023-03-16T05:13:34.130Z,2.09
2023-03-16T05:16:00.824Z,2.19
2023-03-16T05:18:27.535Z,2.16
2023-03-16T05:20:58.403Z,2.15
2023-03-16T05:23:24.979Z,2.11
2023-03-16T05:25:51.530Z,2.01
2023-03-16T05:28:19.273Z,1.74
2023-03-16T05:30:45.917Z,1.99
2023-03-16T05:33:12.931Z,2.11
2023-03-16T05:35:39.842Z,2.28
2023-03-16T05:38:08.728Z,2.27
2023-03-16T05:40:35.604Z,2.31
2023-03-16T05:43:02.112Z,2.39
2023-03-16T05:45:28.711Z,2.39
2023-03-16T05:47:55.304Z,2.42
2023-03-16T05:50:22.937Z,2.57
2023-03-16T05:52:49.516Z,2.73
2023-03-16T05:55:17.326Z,2.42
2023-03-16T05:57:44.602Z,2.46
2023-03-16T06:00:15.528Z,2.73
2023-03-16T06:02:50.040Z,2.80
2023-03-16T06:05:18.660Z,2.79
2023-03-16T06:07:45.402Z,1.88
2023-03-16T06:10:13.046Z,3.02
2023-03-16T06:12:40.070Z,3.08
2023-03-16T06:15:08.333Z,3.20
2023-03-16T06:17:36.683Z,3.12
2023-03-16T06:20:09.799Z,3.27
2023-03-16T06:22:38.374Z,3.42
2023-03-16T06:25:05.433Z,3.42
2023-03-16T06:27:32.020Z,3.58
2023-03-16T06:29:58.685Z,3.61
2023-03-16T06:32:25.210Z,3.33
2023-03-16T06:34:51.712Z,3.54
2023-03-16T06:37:18.562Z,3.58
2023-03-16T06:39:45.086Z,3.77
2023-03-16T06:42:11.630Z,3.45
2023-03-16T06:44:38.234Z,3.85
2023-03-16T06:47:06.086Z,3.50
2023-03-16T06:49:32.756Z,3.91
2023-03-16T06:51:59.349Z,4.16
2023-03-16T06:54:25.903Z,4.23
2023-03-16T06:56:52.518Z,3.90
2023-03-16T06:59:18.994Z,3.97
2023-03-16T07:01:45.601Z,3.96
2023-03-16T07:04:12.855Z,3.86
2023-03-16T07:06:39.510Z,3.66
2023-03-16T07:09:05.972Z,3.74
2023-03-16T07:11:32.821Z,3.53
2023-03-16T07:14:00.093Z,3.64
2023-03-16T07:16:26.784Z,3.60
2023-03-16T07:18:53.581Z,3.31
2023-03-16T07:21:20.694Z,3.79
2023-03-16T07:23:47.885Z,3.94
2023-03-16T07:26:14.394Z,3.56
2023-03-16T07:28:41.142Z,2.97
2023-03-16T07:31:07.882Z,3.86
2023-03-16T07:33:35.018Z,3.89
2023-03-16T07:36:05.815Z,4.07
2023-03-16T07:38:33.549Z,4.03
2023-03-16T07:41:00.566Z,4.31
2023-03-16T07:43:27.186Z,4.25
2023-03-16T07:45:53.931Z,4.35
2023-03-16T07:48:20.933Z,4.42
2023-03-16T07:50:48.232Z,4.00
2023-03-16T07:53:15.941Z,4.86
2023-03-16T07:55:43.404Z,4.44
2023-03-16T07:58:11.165Z,4.37
2023-03-16T08:00:39.129Z,4.60
2023-03-16T08:03:06.074Z,4.68
2023-03-16T08:05:32.733Z,4.62
2023-03-16T08:07:59.908Z,4.65
2023-03-16T08:10:27.202Z,4.91
2023-03-16T08:12:54.036Z,4.68
2023-03-16T08:15:21.626Z,5.25
2023-03-16T08:17:48.447Z,5.19
2023-03-16T08:20:15.687Z,5.00
2023-03-16T08:22:46.560Z,5.32
2023-03-16T08:25:15.020Z,4.90
2023-03-16T08:27:43.193Z,5.28
2023-03-16T08:30:12.128Z,5.31
2023-03-16T08:32:41.185Z,5.36
2023-03-16T08:35:10.341Z,4.87
2023-03-16T08:37:37.049Z,4.97
2023-03-16T08:40:06.751Z,5.63
2023-03-16T08:42:33.301Z,5.70
2023-03-16T08:45:00.998Z,5.33
2023-03-16T08:47:27.596Z,5.77
2023-03-16T08:49:54.136Z,5.52
2023-03-16T08:52:22.745Z,5.87
2023-03-16T08:55:02.399Z,6.23
2023-03-16T08:57:30.074Z,6.21
2023-03-16T08:59:56.570Z,6.18
2023-03-16T09:02:23.105Z,5.59
2023-03-16T09:04:50.045Z,6.18
2023-03-16T09:07:16.799Z,6.34
2023-03-16T09:09:43.978Z,6.49
2023-03-16T09:12:12.440Z,6.84
2023-03-16T09:14:39.725Z,7.16
2023-03-16T09:17:11.816Z,7.14
2023-03-16T09:19:57.753Z,7.40
2023-03-16T09:22:25.719Z,7.47
2023-03-16T09:24:52.452Z,7.94
2023-03-16T09:27:20.731Z,8.18
2023-03-16T09:29:47.711Z,7.96
2023-03-16T09:32:14.479Z,8.41
2023-03-16T09:34:41.782Z,8.64
2023-03-16T09:37:08.303Z,8.50
2023-03-16T09:39:34.816Z,8.27
2023-03-16T09:42:39.262Z,8.59
2023-03-16T09:45:27.670Z,9.05
2023-03-16T09:47:57.873Z,9.12
2023-03-16T09:50:38.161Z,9.09
2023-03-16T09:53:18.774Z,9.62
2023-03-16T09:55:48.646Z,9.36
2023-03-16T09:58:21.625Z,9.34
2023-03-16T10:00:56.090Z,9.54
2023-03-16T10:03:51.320Z,9.59
2023-03-16T10:06:21.521Z,9.33
2023-03-16T10:09:17.674Z,9.55
2023-03-16T10:11:50.225Z,10.71
2023-03-16T10:14:33.971Z,11.35
2023-03-16T10:17:05.845Z,11.36
2023-03-16T10:19:43.615Z,11.59
2023-03-16T10:22:18.551Z,12.35
2023-03-16T10:25:06.781Z,11.84
2023-03-16T10:27:38.528Z,11.83
2023-03-16T10:30:14.670Z,12.39
2023-03-16T10:32:41.457Z,12.98
2023-03-16T10:35:51.706Z,13.35
2023-03-16T10:38:39.599Z,13.71
2023-03-16T10:41:34.129Z,14.71
2023-03-16T10:44:10.165Z,13.27
2023-03-16T10:46:48.557Z,14.21
2023-03-16T10:49:27.179Z,13.37
2023-03-16T10:52:00.250Z,13.41
2023-03-16T10:54:33.795Z,13.79
2023-03-16T10:57:00.751Z,13.93
2023-03-16T10:59:34.403Z,12.43
2023-03-16T11:02:14.530Z,12.94
2023-03-16T11:04:42.002Z,12.51
2023-03-16T11:07:15.113Z,12.12
2023-03-16T11:09:41.897Z,12.12
2023-03-16T11:12:28.986Z,12.50
2023-03-16T11:15:02.504Z,13.30
2023-03-16T11:17:36.954Z,14.17
2023-03-16T11:20:14.929Z,15.02
2023-03-16T11:22:45.676Z,15.86
2023-03-16T11:25:33.928Z,14.47
2023-03-16T11:28:17.956Z,15.14
2023-03-16T11:30:53.721Z,14.06
2023-03-16T11:33:21.991Z,13.05
2023-03-16T11:36:07.417Z,13.78
2023-03-16T11:38:37.684Z,13.36
2023-03-16T11:41:10.574Z,14.61
2023-03-16T11:43:39.706Z,14.90
2023-03-16T11:46:26.706Z,14.48
2023-03-16T11:49:02.147Z,16.22
2023-03-16T11:51:49.444Z,17.55
2023-03-16T11:54:48.762Z,16.95
2023-03-16T11:57:41.608Z,16.04
2023-03-16T12:00:20.534Z,15.24
2023-03-16T12:03:25.235Z,14.51
2023-03-16T12:06:22.204Z,14.22
2023-03-16T12:09:14.716Z,14.75
2023-03-16T12:11:49.754Z,14.20
2023-03-16T12:14:27.392Z,13.62
2023-03-16T12:17:04.791Z,14.14
2023-03-16T12:19:47.175Z,15.01
2023-03-16T12:22:38.238Z,16.30
2023-03-16T12:25:16.909Z,16.31
2023-03-16T12:27:45.526Z,16.56
2023-03-16T12:30:19.196Z,16.24
2023-03-16T12:33:00.733Z,16.88
2023-03-16T12:35:46.932Z,16.84
2023-03-16T12:38:37.524Z,17.11
2023-03-16T12:41:25.596Z,18.90
2023-03-16T12:44:07.544Z,17.25
2023-03-16T12:46:53.549Z,16.78
2023-03-16T12:49:21.171Z,16.37
2023-03-16T12:52:02.233Z,16.72
2023-03-16T12:54:30.377Z,17.03
2023-03-16T12:57:08.040Z,17.48
2023-03-16T12:59:43.970Z,16.96
2023-03-16T13:02:26.387Z,15.67
2023-03-16T13:05:00.093Z,15.53
2023-03-16T13:07:31.366Z,15.63
2023-03-16T13:10:04.414Z,15.72
2023-03-16T13:12:36.959Z,14.42
2023-03-16T13:15:18.028Z,15.61
2023-03-16T13:17:44.632Z,16.96
2023-03-16T13:20:29.632Z,17.60
2023-03-16T13:23:18.333Z,16.23
2023-03-16T13:26:27.354Z,16.35
2023-03-16T13:28:55.410Z,15.76
2023-03-16T13:31:43.171Z,15.67
2023-03-16T13:34:15.259Z,14.19
2023-03-16T13:36:45.235Z,15.40
2023-03-16T13:39:20.949Z,14.66
2023-03-16T13:42:04.780Z,14.15
2023-03-16T13:44:32.179Z,13.14
2023-03-16T13:47:04.505Z,13.80
2023-03-16T13:49:31.042Z,13.43
2023-03-16T13:51:57.992Z,13.01
2023-03-16T13:54:30.401Z,12.93
2023-03-16T13:57:00.383Z,13.50
2023-03-16T13:59:27.281Z,12.87
2023-03-16T14:02:00.418Z,13.84
2023-03-16T14:04:31.064Z,12.51
2023-03-16T14:07:03.823Z,12.09
2023-03-16T14:09:34.575Z,12.34
2023-03-16T14:12:01.475Z,12.27
2023-03-16T14:14:39.368Z,12.29
2023-03-16T14:17:13.567Z,12.09
2023-03-16T14:19:46.127Z,12.16
2023-03-16T14:22:23.898Z,11.56
2023-03-16T14:24:57.011Z,11.81
2023-03-16T14:27:32.925Z,11.16
2023-03-16T14:30:02.909Z,11.50
2023-03-16T14:32:32.427Z,11.49
2023-03-16T14:35:13.179Z,11.70
2023-03-16T14:37:41.913Z,11.23
2023-03-16T14:40:22.662Z,11.43
2023-03-16T14:42:49.437Z,11.25
2023-03-16T14:45:17.697Z,11.56
2023-03-16T14:47:47.662Z,11.71
2023-03-16T14:50:18.867Z,11.73
2023-03-16T14:52:45.978Z,12.05
2023-03-16T14:55:18.857Z,12.01
2023-03-16T14:57:46.175Z,12.01
2023-03-16T15:00:15.730Z,12.31
2023-03-16T15:02:45.461Z,11.98
2023-03-16T15:05:21.613Z,11.62
2023-03-16T15:07:55.656Z,11.97
2023-03-16T15:10:30.102Z,11.72
2023-03-16T15:13:06.149Z,11.19
2023-03-16T15:15:32.709Z,11.13
2023-03-16T15:18:00.054Z,11.66
2023-03-16T15:20:34.863Z,10.88
2023-03-16T15:23:02.250Z,11.34
2023-03-16T15:25:36.573Z,11.22
2023-03-16T15:28:12.307Z,11.06
2023-03-16T15:30:39.229Z,10.94
2023-03-16T15:33:06.292Z,10.72
2023-03-16T15:35:33.129Z,10.79
2023-03-16T15:38:07.399Z,10.86
2023-03-16T15:40:35.848Z,10.90
2023-03-16T15:43:02.562Z,11.26
2023-03-16T15:45:29.542Z,10.87
2023-03-16T15:47:56.237Z,10.94
2023-03-16T15:50:24.921Z,10.46
2023-03-16T15:52:59.519Z,11.00
2023-03-16T15:55:39.193Z,11.00
2023-03-16T15:58:06.736Z,10.92
2023-03-16T16:00:36.000Z,10.96
2023-03-16T16:03:03.992Z,10.74
2023-03-16T16:05:31.658Z,10.82
2023-03-16T16:07:59.551Z,10.41
2023-03-16T16:10:27.083Z,10.62
2023-03-16T16:12:55.861Z,10.56
2023-03-16T16:15:27.418Z,10.53
2023-03-16T16:18:19.102Z,10.74
2023-03-16T16:20:41.905Z,10.60
2023-03-16T16:23:10.490Z,10.21
2023-03-16T16:25:40.393Z,10.52
2023-03-16T16:28:23.566Z,10.69
2023-03-16T16:30:50.797Z,9.72
2023-03-16T16:33:32.584Z,10.47
2023-03-16T16:36:01.786Z,10.23
2023-03-16T16:38:29.382Z,10.30
2023-03-16T16:40:58.699Z,10.42
2023-03-16T16:43:44.474Z,10.45
2023-03-16T16:46:17.495Z,10.50
2023-03-16T16:48:51.196Z,10.33
2023-03-16T16:51:26.786Z,10.16
2023-03-16T16:53:55.957Z,10.30
2023-03-16T16:56:28.376Z,10.06
2023-03-16T16:58:55.895Z,10.17
2023-03-16T17:01:33.029Z,9.82
2023-03-16T17:04:00.146Z,10.02
2023-03-16T17:06:27.964Z,9.86
2023-03-16T17:08:55.480Z,9.50
2023-03-16T17:11:29.073Z,9.96
2023-03-16T17:13:58.805Z,9.90
2023-03-16T17:16:28.759Z,9.40
2023-03-16T17:18:55.685Z,9.49
2023-03-16T17:21:25.308Z,9.74
2023-03-16T17:23:52.881Z,9.48
2023-03-16T17:26:26.331Z,9.74
2023-03-16T17:28:58.375Z,9.74
2023-03-16T17:31:27.783Z,9.16
2023-03-16T17:33:57.197Z,9.68
2023-03-16T17:36:24.407Z,9.47
2023-03-16T17:38:51.248Z,8.83
2023-03-16T17:41:25.442Z,9.46
2023-03-16T17:44:02.860Z,9.40
2023-03-16T17:46:31.236Z,9.45
2023-03-16T17:48:58.236Z,9.52
2023-03-16T17:51:27.177Z,9.20
2023-03-16T17:53:54.866Z,9.38
2023-03-16T17:56:24.576Z,9.36
2023-03-16T17:58:57.252Z,8.59
2023-03-16T18:01:30.525Z,9.10
2023-03-16T18:03:58.112Z,8.94
2023-03-16T18:06:26.631Z,9.04
2023-03-16T18:08:53.525Z,9.14
2023-03-16T18:11:41.750Z,9.19
2023-03-16T18:14:21.089Z,9.15
2023-03-16T18:16:47.698Z,8.75
2023-03-16T18:19:25.406Z,9.30
2023-03-16T18:21:53.707Z,9.09
2023-03-16T18:24:22.221Z,9.02
2023-03-16T18:26:48.799Z,9.13
2023-03-16T18:29:15.339Z,9.10
2023-03-16T18:31:42.390Z,8.45
2023-03-16T18:34:21.151Z,8.92
2023-03-16T18:36:47.931Z,8.71
2023-03-16T18:39:21.392Z,8.66
2023-03-16T18:41:51.200Z,8.13
2023-03-16T18:44:23.838Z,8.73
2023-03-16T18:46:52.241Z,8.46
2023-03-16T18:49:26.459Z,8.65
2023-03-16T18:51:54.675Z,8.61
2023-03-16T18:54:35.148Z,8.67
2023-03-16T18:57:04.431Z,8.27
2023-03-16T18:59:32.102Z,8.63
2023-03-16T19:01:58.958Z,8.60
2023-03-16T19:04:29.438Z,8.37
2023-03-16T19:06:57.369Z,8.67
2023-03-16T19:09:25.728Z,8.69
2023-03-16T19:11:52.823Z,7.99
2023-03-16T19:14:21.015Z,8.48
2023-03-16T19:16:47.635Z,8.17
2023-03-16T19:19:15.638Z,8.67
2023-03-16T19:21:42.996Z,8.13
2023-03-16T19:24:22.754Z,8.70
2023-03-16T19:26:49.444Z,8.48
2023-03-16T19:29:16.173Z,8.57
2023-03-16T19:31:42.819Z,8.59
2023-03-16T19:34:17.861Z,8.32
2023-03-16T19:36:44.866Z,8.20
2023-03-16T19:39:14.082Z,8.26
2023-03-16T19:41:41.161Z,8.05
2023-03-16T19:44:18.600Z,8.25
2023-03-16T19:46:46.128Z,8.19
2023-03-16T19:49:16.293Z,8.47
2023-03-16T19:51:42.975Z,8.36
2023-03-16T19:54:31.860Z,8.29
2023-03-16T19:57:02.134Z,8.14
2023-03-16T19:59:33.497Z,7.85
2023-03-16T20:02:00.370Z,8.27
2023-03-16T20:04:27.910Z,8.08
2023-03-16T20:06:54.769Z,8.48
2023-03-16T20:09:22.552Z,8.36
2023-03-16T20:11:50.073Z,8.32
2023-03-16T20:14:29.568Z,8.23
2023-03-16T20:16:56.159Z,8.27
2023-03-16T20:19:23.219Z,8.33
2023-03-16T20:21:50.474Z,7.74
2023-03-16T20:24:20.733Z,8.26
2023-03-16T20:26:49.440Z,8.30
2023-03-16T20:29:32.073Z,7.76
2023-03-16T20:31:59.658Z,8.05
2023-03-16T20:34:29.974Z,8.22
2023-03-16T20:36:57.084Z,8.21
2023-03-16T20:39:24.205Z,8.35
2023-03-16T20:41:52.216Z,8.39
2023-03-16T20:44:21.281Z,8.38
2023-03-16T20:46:47.955Z,7.99
2023-03-16T20:49:25.301Z,8.25
2023-03-16T20:51:52.283Z,8.19
2023-03-16T20:54:19.330Z,8.06
2023-03-16T20:56:45.844Z,8.26
2023-03-16T20:59:30.182Z,8.38
2023-03-16T21:01:56.868Z,8.03
2023-03-16T21:04:27.649Z,7.99
2023-03-16T21:06:55.754Z,7.40
2023-03-16T21:09:22.411Z,7.81
2023-03-16T21:11:49.301Z,8.10
2023-03-16T21:14:23.256Z,8.05
2023-03-16T21:16:51.038Z,8.03
2023-03-16T21:19:21.178Z,8.06
2023-03-16T21:21:47.826Z,7.91
2023-03-16T21:24:14.458Z,7.97
2023-03-16T21:26:42.918Z,7.96
2023-03-16T21:29:23.902Z,7.78
2023-03-16T21:31:51.833Z,7.78
2023-03-16T21:34:33.807Z,7.87
2023-03-16T21:37:00.532Z,7.72
2023-03-16T21:39:27.275Z,7.89
2023-03-16T21:41:53.822Z,7.77
2023-03-16T21:44:20.764Z,7.88
2023-03-16T21:46:47.544Z,7.92
2023-03-16T21:49:14.925Z,7.95
2023-03-16T21:51:43.170Z,7.91
2023-03-16T21:54:13.730Z,7.65
2023-03-16T21:56:40.929Z,7.92
2023-03-16T21:59:07.907Z,7.63
2023-03-16T22:01:44.891Z,8.03
2023-03-16T22:04:17.524Z,8.06
2023-03-16T22:06:45.015Z,7.89
2023-03-16T22:09:18.744Z,7.95
2023-03-16T22:11:45.523Z,7.73
2023-03-16T22:14:12.019Z,7.89
2023-03-16T22:16:39.444Z,7.70
2023-03-16T22:19:11.507Z,8.04
2023-03-16T22:21:40.444Z,8.07
2023-03-16T22:24:16.782Z,7.97
2023-03-16T22:26:43.425Z,7.79
2023-03-16T22:29:36.675Z,7.86
2023-03-16T22:32:14.795Z,7.64
2023-03-16T22:34:45.170Z,7.87
2023-03-16T22:37:24.154Z,7.78
2023-03-16T22:39:51.371Z,7.76
2023-03-16T22:42:38.757Z,7.85
2023-03-16T22:45:20.511Z,7.59
2023-03-16T22:47:47.877Z,7.77
2023-03-16T22:50:16.759Z,7.78
2023-03-16T22:52:46.362Z,7.68
2023-03-16T22:55:19.836Z,7.82
2023-03-16T22:57:47.418Z,7.81
2023-03-16T23:00:14.380Z,7.67
2023-03-16T23:02:40.954Z,7.57
2023-03-16T23:05:21.300Z,7.80
2023-03-16T23:07:48.197Z,7.63
2023-03-16T23:10:17.296Z,7.15
2023-03-16T23:12:44.601Z,7.67
2023-03-16T23:15:21.592Z,7.18
2023-03-16T23:17:48.901Z,7.50
2023-03-16T23:20:24.207Z,7.61
2023-03-16T23:22:51.694Z,7.46
2023-03-16T23:25:18.752Z,7.38
2023-03-16T23:27:45.578Z,7.53
2023-03-16T23:30:18.326Z,7.41
2023-03-16T23:32:45.290Z,7.52
2023-03-16T23:35:17.964Z,7.27
2023-03-16T23:37:46.245Z,7.53
2023-03-16T23:40:14.218Z,7.44
2023-03-16T23:42:42.976Z,7.30
2023-03-16T23:45:45.160Z,7.46
2023-03-16T23:48:19.021Z,7.47
2023-03-16T23:50:48.581Z,7.45
2023-03-16T23:53:17.776Z,7.28
2023-03-16T23:55:45.058Z,7.54
2023-03-16T23:58:12.100Z,7.51
